Time;durP1;ratioP1;P1;durP2;ratioP2;P2;SDS_P1;SDS_P2;PMS_P1;PMS_P2;Temp;Humidity;BMP_temperature;BMP_pressure;BME280_temperature;BME280_humidity;BME280_pressure;Samples;Min_cycle;Max_cycle;Signal;HPM_P1;HPM_P2
2023/03/17 00:01:56;;;;;;;0.10;0.10;;;4.00;99.90;230.40;231737.00;;;;5049515;28;20688;-72
2023/03/17 00:04:27;;;;;;;0.10;0.10;;;4.00;99.90;230.40;231737.00;;;;5041487;28;20233;-72
2023/03/17 00:06:56;;;;;;;0.10;0.10;;;4.00;99.90;230.40;231737.00;;;;5049976;28;20195;-72
2023/03/17 00:09:25;;;;;;;0.10;0.10;;;4.00;99.90;230.40;231737.00;;;;5046043;28;20227;-72
2023/03/17 00:11:54;;;;;;;0.10;0.10;;;4.00;99.90;230.40;231737.00;;;;5044864;28;20202;-72
2023/03/17 00:14:22;;;;;;;0.10;0.10;;;4.00;99.90;230.40;231737.00;;;;5042858;28;20215;-72
2023/03/17 00:16:52;;;;;;;0.10;0.10;;;3.90;99.90;230.40;231737.00;;;;5036512;28;20198;-75
2023/03/17 00:19:31;;;;;;;0.10;0.10;;;3.90;99.90;230.40;231737.00;;;;5044360;28;20210;-72
2023/03/17 00:22:00;;;;;;;0.10;0.10;;;3.90;99.90;230.40;231737.00;;;;5048516;28;20289;-72
2023/03/17 00:24:29;;;;;;;0.10;0.10;;;3.90;99.90;230.40;231737.00;;;;5041915;28;20203;-72
2023/03/17 00:26:57;;;;;;;0.10;0.10;;;3.90;99.90;230.40;231737.00;;;;5037812;28;20213;-72
2023/03/17 00:29:25;;;;;;;0.10;0.10;;;3.90;99.90;230.40;231737.00;;;;5027914;28;20230;-72
2023/03/17 00:31:56;;;;;;;0.10;0.10;;;3.90;99.90;230.40;231737.00;;;;5031304;28;20673;-72
2023/03/17 00:34:26;;;;;;;0.10;0.10;;;3.90;99.90;230.40;231737.00;;;;5048779;28;20498;-72
2023/03/17 00:36:55;;;;;;;0.10;0.10;;;4.00;99.90;230.40;231737.00;;;;5044544;28;20191;-72
2023/03/17 00:39:24;;;;;;;0.10;0.10;;;4.00;99.90;230.40;231737.00;;;;5049981;28;20218;-73
2023/03/17 00:41:54;;;;;;;0.10;0.10;;;4.00;99.90;230.40;231737.00;;;;5031415;28;20202;-72
2023/03/17 00:44:23;;;;;;;0.10;0.10;;;4.00;99.90;230.40;231737.00;;;;5054119;28;20194;-74
2023/03/17 00:46:51;;;;;;;0.10;0.10;;;4.00;99.90;230.40;231737.00;;;;5034886;28;20237;-72
2023/03/17 00:49:22;;;;;;;0.10;0.10;;;4.00;99.90;230.40;231737.00;;;;5047783;28;20229;-72
2023/03/17 00:51:51;;;;;;;0.10;0.10;;;4.00;99.90;230.40;231737.00;;;;5046522;28;20203;-72
2023/03/17 00:54:21;;;;;;;0.10;0.10;;;4.00;99.90;230.40;231737.00;;;;5050982;28;20223;-71
2023/03/17 00:56:51;;;;;;;0.10;0.10;;;4.00;99.90;230.40;231737.00;;;;5047903;28;20190;-71
2023/03/17 00:59:26;;;;;;;0.10;0.10;;;3.90;99.90;230.40;231737.00;;;;5041729;28;20634;-71
2023/03/17 01:01:55;;;;;;;0.10;0.10;;;4.00;99.90;230.40;231737.00;;;;5050153;28;20199;-71
2023/03/17 01:04:23;;;;;;;0.10;0.10;;;3.90;99.90;230.40;231737.00;;;;5046154;28;20283;-71
2023/03/17 01:06:52;;;;;;;0.10;0.10;;;3.90;99.90;230.40;231737.00;;;;5033715;28;20198;-72
2023/03/17 01:09:26;;;;;;;0.10;0.10;;;3.90;99.90;230.40;231737.00;;;;5042399;28;20226;-72
2023/03/17 01:11:55;;;;;;;0.10;0.10;;;3.90;99.90;230.40;231737.00;;;;5050450;28;20206;-71
2023/03/17 01:14:24;;;;;;;0.10;0.10;;;3.90;99.90;230.40;231737.00;;;;5047451;28;20701;-72
2023/03/17 01:16:53;;;;;;;0.10;0.10;;;3.90;99.90;230.40;231737.00;;;;5045528;28;20221;-72
2023/03/17 01:19:22;;;;;;;0.10;0.10;;;3.90;99.90;230.40;231737.00;;;;5049227;28;20271;-72
2023/03/17 01:21:51;;;;;;;0.10;0.10;;;3.90;99.90;230.40;231737.00;;;;5032952;28;20213;-72
2023/03/17 01:24:19;;;;;;;0.10;0.10;;;3.80;99.90;230.40;231737.00;;;;5044101;28;20828;-72
2023/03/17 01:26:49;;;;;;;0.10;0.10;;;3.90;99.90;230.40;231737.00;;;;5025117;28;20195;-71
2023/03/17 01:29:17;;;;;;;0.10;0.10;;;3.90;99.90;230.40;231737.00;;;;5052655;28;20610;-71
2023/03/17 01:31:46;;;;;;;0.10;0.10;;;3.80;99.90;230.40;231737.00;;;;5034256;28;20199;-71
2023/03/17 01:34:14;;;;;;;0.10;0.10;;;3.80;99.90;230.40;231737.00;;;;5053256;28;20223;-71
2023/03/17 01:36:42;;;;;;;0.10;0.10;;;3.80;99.90;230.40;231737.00;;;;5024309;28;20619;-73
2023/03/17 01:39:11;;;;;;;0.10;0.10;;;3.80;99.90;230.40;231737.00;;;;5034286;28;20222;-71
2023/03/17 01:41:39;;;;;;;0.10;0.10;;;3.80;99.90;230.40;231737.00;;;;5046914;28;20209;-72
2023/03/17 01:44:15;;;;;;;0.10;0.10;;;3.80;99.90;230.40;231737.00;;;;5034266;28;20198;-72
2023/03/17 01:46:44;;;;;;;0.10;0.10;;;3.80;99.90;230.40;231737.00;;;;5032822;28;20255;-72
2023/03/17 01:49:20;;;;;;;0.10;0.10;;;3.80;99.90;230.40;231737.00;;;;5032970;28;20697;-72
2023/03/17 01:51:59;;;;;;;0.10;0.10;;;3.80;99.90;230.40;231737.00;;;;5028667;28;20234;-72
2023/03/17 01:54:36;;;;;;;0.10;0.10;;;3.80;99.90;230.40;231737.00;;;;5034314;28;20229;-72
2023/03/17 01:57:13;;;;;;;0.10;0.10;;;3.90;99.90;230.40;231737.00;;;;5043609;28;20653;-72
2023/03/17 01:59:46;;;;;;;0.10;0.10;;;3.80;99.90;230.40;231737.00;;;;5045296;28;20222;-72
2023/03/17 02:02:19;;;;;;;0.10;0.10;;;3.90;99.90;230.40;231737.00;;;;5031010;28;20199;-71
2023/03/17 02:04:49;;;;;;;0.10;0.10;;;3.90;99.90;230.40;231737.00;;;;5046848;28;20669;-73
2023/03/17 02:07:18;;;;;;;0.10;0.10;;;3.90;99.90;230.40;231737.00;;;;5047848;28;20226;-72
2023/03/17 02:09:46;;;;;;;0.10;0.10;;;3.90;99.90;230.40;231737.00;;;;5048474;28;20229;-72
2023/03/17 02:12:15;;;;;;;0.10;0.10;;;3.80;99.90;230.40;231737.00;;;;5048865;28;20186;-73
2023/03/17 02:14:44;;;;;;;0.10;0.10;;;3.80;99.90;230.40;231737.00;;;;5051365;28;20250;-72
2023/03/17 02:17:13;;;;;;;0.10;0.10;;;3.80;99.90;230.40;231737.00;;;;5028184;28;20571;-72
2023/03/17 02:19:42;;;;;;;0.10;0.10;;;3.80;99.90;230.40;231737.00;;;;5048926;28;20202;-74
2023/03/17 02:22:12;;;;;;;0.10;0.10;;;3.80;99.90;230.40;231737.00;;;;5039454;28;20203;-73
2023/03/17 02:24:44;;;;;;;0.10;0.10;;;3.80;99.90;230.40;231737.00;;;;5051356;28;20206;-72
2023/03/17 02:27:20;;;;;;;0.10;0.10;;;3.80;99.90;230.40;231737.00;;;;5041706;28;20198;-73
2023/03/17 02:29:49;;;;;;;0.10;0.10;;;3.80;99.90;230.40;231737.00;;;;5051664;28;20612;-72
2023/03/17 02:32:19;;;;;;;0.10;0.10;;;3.80;99.90;230.40;231737.00;;;;5049954;28;20635;-71
2023/03/17 02:34:48;;;;;;;0.10;0.10;;;3.80;99.90;230.40;231737.00;;;;5052512;28;20223;-71
2023/03/17 02:37:19;;;;;;;0.03;0.03;;;3.80;99.90;230.40;231737.00;;;;5045705;28;20217;-72
2023/03/17 02:39:47;;;;;;;0.10;0.10;;;3.80;99.90;230.40;231737.00;;;;5044948;28;20218;-73
2023/03/17 02:42:15;;;;;;;0.10;0.10;;;3.80;99.90;230.40;231737.00;;;;5035982;28;20202;-72
2023/03/17 02:44:43;;;;;;;0.10;0.10;;;3.80;99.90;230.40;231737.00;;;;5043917;28;20202;-72
2023/03/17 02:47:12;;;;;;;0.10;0.10;;;3.80;99.90;230.40;231737.00;;;;5041535;28;20547;-72
2023/03/17 02:49:42;;;;;;;0.10;0.10;;;3.80;99.90;230.40;231737.00;;;;5049902;28;20305;-72
2023/03/17 02:52:11;;;;;;;0.10;0.10;;;3.80;99.90;230.40;231737.00;;;;5045627;28;20265;-72
2023/03/17 02:54:40;;;;;;;0.10;0.10;;;3.80;99.90;230.40;231737.00;;;;5043144;28;20252;-72
2023/03/17 02:57:08;;;;;;;0.10;0.10;;;3.80;99.90;230.40;231737.00;;;;5038970;28;20194;-72
2023/03/17 02:59:37;;;;;;;0.10;0.10;;;3.80;99.90;230.40;231737.00;;;;5039573;28;20232;-71
2023/03/17 03:02:05;;;;;;;0.10;0.10;;;3.80;99.90;230.40;231737.00;;;;5044079;28;20226;-71
2023/03/17 03:04:33;;;;;;;0.10;0.10;;;3.80;99.90;230.40;231737.00;;;;5043318;28;20211;-72
2023/03/17 03:07:01;;;;;;;0.10;0.10;;;3.80;99.90;230.40;231737.00;;;;5048897;28;20206;-72
2023/03/17 03:09:30;;;;;;;0.10;0.10;;;3.70;99.90;230.40;231737.00;;;;5051114;28;20265;-72
2023/03/17 03:12:00;;;;;;;0.10;0.10;;;3.70;99.90;230.40;231737.00;;;;5043176;28;20199;-72
2023/03/17 03:14:28;;;;;;;0.10;0.10;;;3.70;99.90;230.40;231737.00;;;;5044865;28;20195;-71
2023/03/17 03:16:56;;;;;;;0.10;0.10;;;3.70;99.90;230.40;231737.00;;;;5046555;28;20221;-72
2023/03/17 03:19:24;;;;;;;0.10;0.10;;;3.70;99.90;230.40;231737.00;;;;5051127;28;20272;-72
2023/03/17 03:21:52;;;;;;;0.10;0.10;;;3.70;99.90;230.40;231737.00;;;;5040894;28;20595;-72
2023/03/17 03:24:20;;;;;;;0.10;0.10;;;3.70;99.90;230.40;231737.00;;;;5039509;28;20253;-71
2023/03/17 03:26:48;;;;;;;0.10;0.10;;;3.70;99.90;230.40;231737.00;;;;5043240;28;20259;-71
2023/03/17 03:29:17;;;;;;;0.10;0.10;;;3.70;99.90;230.40;231737.00;;;;5050142;28;20284;-71
2023/03/17 03:31:46;;;;;;;0.10;0.10;;;3.70;99.90;230.40;231737.00;;;;5039491;28;20245;-71
2023/03/17 03:34:15;;;;;;;0.10;0.10;;;3.70;99.90;230.40;231737.00;;;;5043960;28;20194;-71
2023/03/17 03:36:43;;;;;;;0.10;0.10;;;3.70;99.90;230.40;231737.00;;;;5043875;28;20219;-71
2023/03/17 03:39:11;;;;;;;0.10;0.10;;;3.70;99.90;230.40;231737.00;;;;5046432;28;20218;-71
2023/03/17 03:41:41;;;;;;;0.10;0.10;;;3.70;99.90;230.40;231737.00;;;;5042972;28;20220;-73
2023/03/17 03:44:09;;;;;;;0.10;0.10;;;3.80;99.90;230.40;231737.00;;;;5042865;28;20240;-72
2023/03/17 03:46:38;;;;;;;0.10;0.10;;;3.80;99.90;230.40;231737.00;;;;5048238;28;20202;-72
2023/03/17 03:49:06;;;;;;;0.10;0.10;;;3.80;99.90;230.40;231737.00;;;;5045956;28;20238;-71
2023/03/17 03:51:34;;;;;;;0.10;0.10;;;3.80;99.90;230.40;231737.00;;;;5046580;28;20202;-71
2023/03/17 03:54:02;;;;;;;0.10;0.10;;;3.70;99.90;230.40;231737.00;;;;5043924;28;20195;-71
2023/03/17 03:56:30;;;;;;;0.10;0.10;;;3.70;99.90;230.40;231737.00;;;;5046240;28;20222;-71
2023/03/17 03:58:58;;;;;;;0.10;0.10;;;3.70;99.90;230.40;231737.00;;;;5049234;28;20221;-72
2023/03/17 04:01:27;;;;;;;0.10;0.10;;;3.70;99.90;230.40;231737.00;;;;5042606;28;20210;-72
2023/03/17 04:03:56;;;;;;;0.10;0.10;;;3.60;99.90;230.40;231737.00;;;;5051439;28;20562;-71
2023/03/17 04:06:24;;;;;;;0.10;0.10;;;3.60;99.90;230.40;231737.00;;;;5049316;28;20207;-73
2023/03/17 04:08:52;;;;;;;0.10;0.10;;;3.60;99.90;230.40;231737.00;;;;5047713;28;20766;-71
2023/03/17 04:11:20;;;;;;;0.10;0.10;;;3.60;99.90;230.40;231737.00;;;;5041763;28;20532;-72
2023/03/17 04:13:48;;;;;;;0.10;0.10;;;3.60;99.90;230.40;231737.00;;;;5050936;28;20202;-72
2023/03/17 04:16:16;;;;;;;0.10;0.10;;;3.60;99.90;230.40;231737.00;;;;5042294;28;20222;-71
2023/03/17 04:18:44;;;;;;;0.20;0.20;;;3.70;99.90;230.40;231737.00;;;;5050370;28;20218;-71
2023/03/17 04:21:17;;;;;;;0.10;0.10;;;3.70;99.90;230.40;231737.00;;;;5042967;28;20203;-71
2023/03/17 04:23:45;;;;;;;0.10;0.10;;;3.60;99.90;230.40;231737.00;;;;5043720;28;20199;-71
2023/03/17 04:26:13;;;;;;;0.10;0.10;;;3.70;99.90;230.40;231737.00;;;;5042691;28;20257;-71
2023/03/17 04:28:41;;;;;;;0.10;0.10;;;3.70;99.90;230.40;231737.00;;;;5048691;28;20293;-72
2023/03/17 04:31:11;;;;;;;0.10;0.10;;;3.70;99.90;230.40;231737.00;;;;5052722;28;20222;-71
2023/03/17 04:33:40;;;;;;;0.10;0.10;;;3.60;99.90;230.40;231737.00;;;;5044004;28;20191;-73
2023/03/17 04:36:15;;;;;;;0.10;0.10;;;3.60;99.90;230.40;231737.00;;;;5050975;28;20246;-70
2023/03/17 04:38:43;;;;;;;0.10;0.10;;;3.60;99.90;230.40;231737.00;;;;5049562;28;20218;-72
2023/03/17 04:41:11;;;;;;;0.10;0.10;;;3.60;99.90;230.40;231737.00;;;;5051878;28;20634;-72
2023/03/17 04:43:40;;;;;;;0.05;0.05;;;3.60;99.90;230.40;231737.00;;;;5044406;28;20191;-73
2023/03/17 04:46:08;;;;;;;0.10;0.10;;;3.60;99.90;230.40;231737.00;;;;5052984;28;20336;-71
2023/03/17 04:48:37;;;;;;;0.10;0.10;;;3.60;99.90;230.40;231737.00;;;;5047905;28;20246;-73
2023/03/17 04:51:05;;;;;;;0.10;0.10;;;3.60;99.90;230.40;231737.00;;;;5050688;28;20198;-73
2023/03/17 04:53:34;;;;;;;0.10;0.10;;;3.60;99.90;230.40;231737.00;;;;5052465;28;20209;-73
2023/03/17 04:56:02;;;;;;;0.10;0.10;;;3.50;99.90;230.40;231737.00;;;;5052479;28;20734;-72
2023/03/17 04:58:30;;;;;;;0.10;0.10;;;3.50;99.90;230.40;231737.00;;;;5050285;28;20291;-72
2023/03/17 05:01:00;;;;;;;0.10;0.10;;;3.60;99.90;230.40;231737.00;;;;5046108;28;20203;-71
2023/03/17 05:03:29;;;;;;;0.10;0.10;;;3.50;99.90;230.40;231737.00;;;;5047472;28;20199;-70
2023/03/17 05:05:57;;;;;;;0.10;0.10;;;3.50;99.90;230.40;231737.00;;;;5048663;28;20244;-71
2023/03/17 05:08:27;;;;;;;0.10;0.10;;;3.50;99.90;230.40;231737.00;;;;5049734;28;20218;-72
2023/03/17 05:10:58;;;;;;;0.10;0.10;;;3.50;99.90;230.40;231737.00;;;;5051481;28;20955;-72
2023/03/17 05:13:27;;;;;;;0.10;0.10;;;3.50;99.90;230.40;231737.00;;;;5049812;28;20252;-71
2023/03/17 05:15:58;;;;;;;0.10;0.10;;;3.50;99.90;230.40;231737.00;;;;5051409;28;20198;-71
2023/03/17 05:18:26;;;;;;;0.10;0.10;;;3.50;99.90;230.40;231737.00;;;;5047772;28;20245;-72
2023/03/17 05:20:55;;;;;;;0.10;0.10;;;3.50;99.90;230.40;231737.00;;;;5052573;28;20660;-73
2023/03/17 05:23:23;;;;;;;0.10;0.10;;;3.50;99.90;230.40;231737.00;;;;5045240;28;20194;-71
2023/03/17 05:25:51;;;;;;;0.10;0.10;;;3.40;99.90;230.40;231737.00;;;;5051531;28;20198;-71
2023/03/17 05:28:21;;;;;;;0.10;0.10;;;3.40;99.90;230.40;231737.00;;;;5041677;28;20664;-73
2023/03/17 05:30:49;;;;;;;0.10;0.10;;;3.40;99.90;230.40;231737.00;;;;5044571;28;20199;-72
2023/03/17 05:33:17;;;;;;;0.10;0.10;;;3.40;99.90;230.40;231737.00;;;;5045388;28;20203;-71
2023/03/17 05:35:46;;;;;;;0.10;0.10;;;3.40;99.90;230.40;231737.00;;;;5046487;28;20199;-71
2023/03/17 05:38:15;;;;;;;0.10;0.10;;;3.40;99.90;230.40;231737.00;;;;5048637;28;20233;-72
2023/03/17 05:40:44;;;;;;;0.10;0.10;;;3.50;99.90;230.40;231737.00;;;;5050055;28;20220;-71
2023/03/17 05:43:12;;;;;;;0.10;0.10;;;3.40;99.90;230.40;231737.00;;;;5052292;28;20202;-71
2023/03/17 05:45:42;;;;;;;0.10;0.10;;;3.50;99.90;230.40;231737.00;;;;5052020;28;20198;-71
2023/03/17 05:48:12;;;;;;;0.10;0.10;;;3.50;99.90;230.40;231737.00;;;;5050527;28;20226;-72
2023/03/17 05:50:40;;;;;;;0.10;0.10;;;3.50;99.90;230.40;231737.00;;;;5049645;28;20209;-71
2023/03/17 05:53:09;;;;;;;0.10;0.10;;;3.50;99.90;230.40;231737.00;;;;5049006;28;20202;-73
2023/03/17 05:55:37;;;;;;;0.10;0.10;;;3.50;99.90;230.40;231737.00;;;;5048670;28;20669;-72
2023/03/17 05:58:05;;;;;;;0.10;0.10;;;3.50;99.90;230.40;231737.00;;;;5045748;28;20226;-72
2023/03/17 06:00:33;;;;;;;0.10;0.10;;;3.50;99.90;230.40;231737.00;;;;5048664;28;20212;-72
2023/03/17 06:03:04;;;;;;;0.10;0.10;;;3.50;99.90;230.40;231737.00;;;;5044261;28;20793;-71
2023/03/17 06:05:32;;;;;;;0.10;0.10;;;3.50;99.90;230.40;231737.00;;;;5048851;28;20198;-74
2023/03/17 06:08:00;;;;;;;0.10;0.10;;;3.50;99.90;230.40;231737.00;;;;5047940;28;20221;-72
2023/03/17 06:10:28;;;;;;;0.10;0.10;;;3.50;99.90;230.40;231737.00;;;;5046311;28;20191;-72
2023/03/17 06:12:57;;;;;;;0.10;0.10;;;3.50;99.90;230.40;231737.00;;;;5048177;28;20731;-72
2023/03/17 06:15:26;;;;;;;0.10;0.10;;;3.50;99.90;230.40;231737.00;;;;5049897;28;20195;-72
2023/03/17 06:17:54;;;;;;;0.10;0.10;;;3.50;99.90;230.40;231737.00;;;;5037326;28;20259;-72
2023/03/17 06:20:24;;;;;;;0.10;0.10;;;3.50;99.90;230.40;231737.00;;;;5040840;28;20190;-72
2023/03/17 06:22:51;;;;;;;0.10;0.10;;;3.50;99.90;230.40;231737.00;;;;5048577;28;20209;-72
2023/03/17 06:25:32;;;;;;;0.10;0.10;;;3.60;99.90;230.40;231737.00;;;;5044024;28;20190;-72
2023/03/17 06:28:02;;;;;;;0.10;0.10;;;3.60;99.90;230.40;231737.00;;;;5047170;28;20312;-72
2023/03/17 06:30:31;;;;;;;0.10;0.10;;;3.60;99.90;230.40;231737.00;;;;5042655;28;20646;-73
2023/03/17 06:33:00;;;;;;;0.10;0.10;;;3.60;99.90;230.40;231737.00;;;;5050723;28;20209;-73
2023/03/17 06:35:30;;;;;;;0.10;0.10;;;3.70;99.90;230.40;231737.00;;;;5047171;28;20202;-73
2023/03/17 06:37:59;;;;;;;0.00;0.00;;;3.70;99.90;230.40;231737.00;;;;5048346;28;20226;-73
2023/03/17 06:40:28;;;;;;;0.10;0.10;;;3.70;99.90;230.40;231737.00;;;;5047038;28;20616;-73
2023/03/17 06:42:57;;;;;;;0.10;0.10;;;3.70;99.90;230.40;231737.00;;;;5047240;28;20606;-73
2023/03/17 06:45:25;;;;;;;0.10;0.10;;;3.80;99.90;230.40;231737.00;;;;5046904;28;20203;-72
2023/03/17 06:47:54;;;;;;;0.10;0.10;;;3.80;99.90;230.40;231737.00;;;;5041107;28;20222;-72
2023/03/17 06:50:22;;;;;;;0.10;0.10;;;3.90;99.90;230.40;231737.00;;;;5044435;28;20203;-73
2023/03/17 06:52:51;;;;;;;0.10;0.10;;;3.90;99.90;230.40;231737.00;;;;5051569;28;20614;-72
2023/03/17 06:55:20;;;;;;;0.10;0.10;;;4.00;99.90;230.40;231737.00;;;;5047896;28;20244;-72
2023/03/17 06:57:50;;;;;;;0.10;0.10;;;4.10;99.90;230.40;231737.00;;;;5048680;28;20587;-75
2023/03/17 07:00:19;;;;;;;0.10;0.10;;;4.10;99.90;230.40;231737.00;;;;5048215;28;20646;-73
2023/03/17 07:02:48;;;;;;;0.10;0.10;;;4.20;99.90;230.40;231737.00;;;;5047708;28;20252;-73
2023/03/17 07:05:16;;;;;;;0.10;0.10;;;4.30;99.90;230.40;231737.00;;;;5043390;28;20869;-73
2023/03/17 07:07:45;;;;;;;0.10;0.10;;;4.40;99.90;230.40;231737.00;;;;5046845;28;20195;-73
2023/03/17 07:10:16;;;;;;;0.10;0.10;;;4.40;99.90;230.40;231737.00;;;;5041730;28;20209;-74
2023/03/17 07:12:44;;;;;;;0.10;0.10;;;4.50;99.90;230.40;231737.00;;;;5044065;28;20207;-73
2023/03/17 07:15:12;;;;;;;0.10;0.10;;;4.50;99.90;230.40;231737.00;;;;5050318;28;20205;-73
2023/03/17 07:17:40;;;;;;;0.10;0.10;;;4.60;99.90;230.40;231737.00;;;;5038235;28;20218;-73
2023/03/17 07:20:10;;;;;;;0.10;0.10;;;4.70;99.90;230.40;231737.00;;;;5040118;28;20207;-73
2023/03/17 07:22:39;;;;;;;0.10;0.10;;;4.80;99.90;230.40;231737.00;;;;5049549;28;20550;-72
2023/03/17 07:25:08;;;;;;;0.10;0.10;;;4.90;99.90;230.40;231737.00;;;;5051636;28;20230;-73
2023/03/17 07:27:38;;;;;;;0.10;0.10;;;4.90;99.90;230.40;231737.00;;;;5048549;28;20252;-73
2023/03/17 07:30:09;;;;;;;0.10;0.10;;;5.00;99.90;230.40;231737.00;;;;5045855;28;20191;-74
2023/03/17 07:32:37;;;;;;;0.10;0.10;;;5.00;99.90;230.40;231737.00;;;;5046420;28;20684;-73
2023/03/17 07:35:06;;;;;;;0.10;0.10;;;5.00;99.90;230.40;231737.00;;;;5049287;28;20205;-73
2023/03/17 07:37:35;;;;;;;0.10;0.10;;;5.10;99.90;230.40;231737.00;;;;5037889;28;20309;-73
2023/03/17 07:40:05;;;;;;;0.10;0.10;;;5.20;99.90;230.40;231737.00;;;;5040028;28;20194;-75
2023/03/17 07:42:33;;;;;;;0.10;0.10;;;5.20;99.90;230.40;231737.00;;;;5049141;28;20241;-73
2023/03/17 07:45:02;;;;;;;0.10;0.10;;;5.30;99.90;230.40;231737.00;;;;5049010;28;20202;-73
2023/03/17 07:47:30;;;;;;;0.10;0.10;;;5.30;99.90;230.40;231737.00;;;;5043198;28;20209;-73
2023/03/17 07:49:58;;;;;;;0.10;0.10;;;5.40;99.90;230.40;231737.00;;;;5050342;28;20198;-73
2023/03/17 07:52:26;;;;;;;0.10;0.10;;;5.40;99.90;230.40;231737.00;;;;5047434;28;20248;-73
2023/03/17 07:54:54;;;;;;;0.10;0.10;;;5.50;99.90;230.40;231737.00;;;;5044246;28;20217;-72
2023/03/17 07:57:23;;;;;;;0.10;0.10;;;5.60;99.90;230.40;231737.00;;;;5046328;28;20195;-73
2023/03/17 07:59:51;;;;;;;0.10;0.10;;;5.70;99.90;230.40;231737.00;;;;5052215;28;20230;-72
2023/03/17 08:02:21;;;;;;;0.10;0.10;;;5.80;99.90;230.40;231737.00;;;;5052689;28;20202;-73
2023/03/17 08:04:49;;;;;;;0.10;0.10;;;5.90;99.90;230.40;231737.00;;;;5048059;28;20231;-74
2023/03/17 08:07:18;;;;;;;0.10;0.10;;;6.00;99.90;230.40;231737.00;;;;5050654;28;20681;-73
2023/03/17 08:09:46;;;;;;;0.10;0.10;;;6.10;99.90;230.40;231737.00;;;;5047040;28;20644;-73
2023/03/17 08:12:15;;;;;;;0.10;0.10;;;6.10;99.90;230.40;231737.00;;;;5045811;28;20207;-72
2023/03/17 08:14:43;;;;;;;0.10;0.10;;;6.20;99.90;230.40;231737.00;;;;5047691;28;20202;-74
2023/03/17 08:17:12;;;;;;;0.10;0.10;;;6.30;99.90;230.40;231737.00;;;;5043728;28;20191;-72
2023/03/17 08:19:41;;;;;;;0.10;0.10;;;6.30;99.90;230.40;231737.00;;;;5045130;28;20588;-74
2023/03/17 08:22:11;;;;;;;0.10;0.10;;;6.40;99.90;230.40;231737.00;;;;5035953;28;20229;-73
2023/03/17 08:24:41;;;;;;;0.10;0.10;;;6.50;99.90;230.40;231737.00;;;;5043428;28;20448;-73
2023/03/17 08:27:09;;;;;;;0.10;0.10;;;6.60;99.90;230.40;231737.00;;;;5048511;28;20201;-74
2023/03/17 08:29:37;;;;;;;0.10;0.10;;;6.70;99.90;230.40;231737.00;;;;5043354;28;20577;-74
2023/03/17 08:32:07;;;;;;;0.10;0.10;;;6.80;99.90;230.40;231737.00;;;;5050568;28;20194;-72
2023/03/17 08:34:36;;;;;;;0.10;0.10;;;6.90;99.90;230.40;231737.00;;;;5048956;28;20613;-72
2023/03/17 08:37:06;;;;;;;0.10;0.10;;;7.00;99.90;230.40;231737.00;;;;5045958;28;20198;-74
2023/03/17 08:39:37;;;;;;;0.10;0.10;;;7.10;99.90;230.40;231737.00;;;;5051205;28;20272;-72
2023/03/17 08:42:06;;;;;;;0.10;0.10;;;7.10;99.90;230.40;231737.00;;;;5040929;28;20285;-73
2023/03/17 08:44:34;;;;;;;0.10;0.10;;;7.20;99.90;230.40;231737.00;;;;5047122;28;20293;-72
2023/03/17 08:47:03;;;;;;;0.10;0.10;;;7.30;99.90;230.40;231737.00;;;;5046573;28;20198;-74
2023/03/17 08:49:33;;;;;;;0.10;0.10;;;7.30;99.90;230.40;231737.00;;;;5049031;28;20276;-73
2023/03/17 08:52:02;;;;;;;0.10;0.10;;;7.40;99.90;230.40;231737.00;;;;5044148;28;20202;-73
2023/03/17 08:54:31;;;;;;;0.10;0.10;;;7.40;99.90;230.40;231737.00;;;;5047421;28;20828;-73
2023/03/17 08:57:00;;;;;;;0.10;0.10;;;7.50;99.90;230.40;231737.00;;;;5052683;28;20596;-74
2023/03/17 08:59:28;;;;;;;0.10;0.10;;;7.60;99.90;230.40;231737.00;;;;5049006;28;20226;-74
2023/03/17 09:01:56;;;;;;;0.10;0.10;;;7.70;99.90;230.40;231737.00;;;;5049634;28;20199;-77
2023/03/17 09:04:25;;;;;;;0.10;0.10;;;7.80;99.90;230.40;231737.00;;;;5052413;28;20715;-74
2023/03/17 09:06:54;;;;;;;0.10;0.10;;;7.70;99.90;230.40;231737.00;;;;5053072;28;20194;-72
2023/03/17 09:09:34;;;;;;;0.10;0.10;;;7.80;99.90;230.40;231737.00;;;;5048550;28;20226;-76
2023/03/17 09:12:05;;;;;;;0.10;0.10;;;7.90;99.90;230.40;231737.00;;;;5048525;28;20290;-72
2023/03/17 09:14:33;;;;;;;0.10;0.10;;;8.00;99.90;230.40;231737.00;;;;5045048;28;20713;-75
2023/03/17 09:17:10;;;;;;;0.10;0.10;;;8.10;99.90;230.40;231737.00;;;;5048565;28;21219;-73
2023/03/17 09:19:39;;;;;;;0.10;0.10;;;8.20;99.90;230.40;231737.00;;;;5051162;28;20251;-75
2023/03/17 09:22:07;;;;;;;0.10;0.10;;;8.40;99.90;230.40;231737.00;;;;5050792;28;20198;-74
2023/03/17 09:24:36;;;;;;;0.10;0.10;;;8.50;99.90;230.40;231737.00;;;;5039564;28;20237;-73
2023/03/17 09:27:05;;;;;;;0.10;0.10;;;8.60;99.90;230.40;231737.00;;;;5050322;28;20194;-72
2023/03/17 09:29:33;;;;;;;0.10;0.10;;;8.60;99.90;230.40;231737.00;;;;5049037;28;20239;-72
2023/03/17 09:32:01;;;;;;;0.10;0.10;;;8.70;99.90;230.40;231737.00;;;;5040416;28;20195;-72
2023/03/17 09:34:29;;;;;;;0.10;0.10;;;8.80;99.90;230.40;231737.00;;;;5042846;28;20194;-74
2023/03/17 09:36:58;;;;;;;0.10;0.10;;;8.90;99.90;230.40;231737.00;;;;5052348;28;20244;-72
2023/03/17 09:39:26;;;;;;;0.10;0.10;;;9.00;99.70;230.40;231737.00;;;;5047649;28;20229;-73
2023/03/17 09:42:12;;;;;;;0.10;0.10;;;9.00;99.00;230.40;231737.00;;;;5044943;28;20207;-73
2023/03/17 09:45:04;;;;;;;0.10;0.10;;;9.10;99.30;230.40;231737.00;;;;5047753;28;20206;-74
2023/03/17 09:48:03;;;;;;;0.10;0.10;;;9.10;99.20;230.40;231737.00;;;;5049498;28;20226;-73
2023/03/17 09:50:43;;;;;;;0.10;0.10;;;9.30;99.50;230.40;231737.00;;;;5044451;28;20209;-73
2023/03/17 09:53:19;;;;;;;0.10;0.10;;;9.40;99.40;230.40;231737.00;;;;5048401;28;20237;-73
2023/03/17 09:55:54;;;;;;;0.10;0.10;;;9.50;99.60;230.40;231737.00;;;;5045119;28;20209;-73
2023/03/17 09:58:30;;;;;;;0.10;0.10;;;9.70;99.80;230.40;231737.00;;;;5050039;28;20291;-73
2023/03/17 10:00:59;;;;;;;0.10;0.10;;;9.80;99.50;230.40;231737.00;;;;5043281;28;20674;-73
2023/03/17 10:03:27;;;;;;;0.10;0.10;;;9.90;99.40;230.40;231737.00;;;;5046838;28;20190;-71
2023/03/17 10:06:15;;;;;;;0.10;0.10;;;9.80;98.90;230.40;231737.00;;;;5046454;28;20604;-72
2023/03/17 10:08:55;;;;;;;0.10;0.10;;;9.80;98.90;230.40;231737.00;;;;5043679;28;20226;-71
2023/03/17 10:11:34;;;;;;;0.10;0.10;;;9.80;99.20;230.40;231737.00;;;;5044600;28;20252;-70
2023/03/17 10:14:17;;;;;;;0.10;0.10;;;9.80;98.80;230.40;231737.00;;;;5046841;28;20619;-71
2023/03/17 10:16:52;;;;;;;0.10;0.10;;;9.90;99.10;230.40;231737.00;;;;5040375;28;20194;-74
2023/03/17 10:19:26;;;;;;;0.10;0.10;;;10.00;99.00;230.40;231737.00;;;;5051236;28;20229;-75
2023/03/17 10:22:00;;;;;;;0.10;0.10;;;10.20;98.60;230.40;231737.00;;;;5051400;28;20202;-74
2023/03/17 10:24:32;;;;;;;0.10;0.10;;;10.20;97.90;230.40;231737.00;;;;5038911;28;20198;-74
2023/03/17 10:27:05;;;;;;;0.10;0.10;;;10.20;97.80;230.40;231737.00;;;;5047708;28;20616;-73
2023/03/17 10:29:35;;;;;;;0.10;0.10;;;10.40;97.80;230.40;231737.00;;;;5045942;28;20250;-73
2023/03/17 10:32:04;;;;;;;0.10;0.10;;;10.50;97.40;230.40;231737.00;;;;5040213;28;20685;-74
2023/03/17 10:34:35;;;;;;;0.10;0.10;;;10.60;96.90;230.40;231737.00;;;;5046796;28;20207;-74
2023/03/17 10:37:08;;;;;;;0.10;0.10;;;10.70;96.70;230.40;231737.00;;;;5037809;28;20210;-74
2023/03/17 10:39:45;;;;;;;0.10;0.10;;;10.80;96.70;230.40;231737.00;;;;5048952;28;20279;-74
2023/03/17 10:42:22;;;;;;;0.10;0.10;;;10.90;96.90;230.40;231737.00;;;;5043241;28;20190;-74
2023/03/17 10:44:56;;;;;;;0.10;0.10;;;11.00;96.50;230.40;231737.00;;;;5041996;28;20208;-72
2023/03/17 10:47:32;;;;;;;0.10;0.10;;;11.10;96.60;230.40;231737.00;;;;5046425;28;20209;-71
2023/03/17 10:50:18;;;;;;;0.10;0.10;;;11.30;96.20;230.40;231737.00;;;;5046391;28;20194;-71
2023/03/17 10:52:51;;;;;;;0.10;0.10;;;11.30;96.00;230.40;231737.00;;;;5047211;28;20312;-74
2023/03/17 10:55:26;;;;;;;0.10;0.10;;;11.50;96.00;230.40;231737.00;;;;5044475;28;20236;-73
2023/03/17 10:58:04;;;;;;;0.10;0.10;;;11.60;95.80;230.40;231737.00;;;;5050365;28;20226;-72
2023/03/17 11:00:37;;;;;;;0.10;0.10;;;11.70;95.50;230.40;231737.00;;;;5045419;28;20225;-73